sensor_id;sensor_type;location;lat;lon;timestamp;temperature;humidity
20319;DHT22;10317;47.254;11.314;2023-04-24T00:00:40;10.10;99.90
20319;DHT22;10317;47.254;11.314;2023-04-24T00:03:06;10.00;99.90
20319;DHT22;10317;47.254;11.314;2023-04-24T00:05:33;9.80;99.90
20319;DHT22;10317;47.254;11.314;2023-04-24T00:07:59;9.80;99.90
20319;DHT22;10317;47.254;11.314;2023-04-24T00:10:25;9.60;99.90
20319;DHT22;10317;47.254;11.314;2023-04-24T00:12:51;9.60;99.90
20319;DHT22;10317;47.254;11.314;2023-04-24T00:15:16;9.60;99.90
20319;DHT22;10317;47.254;11.314;2023-04-24T00:17:42;9.60;99.90
20319;DHT22;10317;47.254;11.314;2023-04-24T00:20:08;9.50;99.90
20319;DHT22;10317;47.254;11.314;2023-04-24T00:22:35;9.50;99.90
20319;DHT22;10317;47.254;11.314;2023-04-24T00:25:01;9.50;99.90
20319;DHT22;10317;47.254;11.314;2023-04-24T00:27:27;9.50;99.90
20319;DHT22;10317;47.254;11.314;2023-04-24T00:29:52;9.50;99.90
20319;DHT22;10317;47.254;11.314;2023-04-24T00:32:18;9.50;99.90
20319;DHT22;10317;47.254;11.314;2023-04-24T00:34:44;9.50;99.90
20319;DHT22;10317;47.254;11.314;2023-04-24T00:37:09;9.40;99.90
20319;DHT22;10317;47.254;11.314;2023-04-24T00:39:36;9.40;99.90
20319;DHT22;10317;47.254;11.314;2023-04-24T00:42:02;9.40;99.90
20319;DHT22;10317;47.254;11.314;2023-04-24T00:44:28;9.40;99.90
20319;DHT22;10317;47.254;11.314;2023-04-24T00:46:54;9.40;99.90
20319;DHT22;10317;47.254;11.314;2023-04-24T00:49:23;9.40;99.90
20319;DHT22;10317;47.254;11.314;2023-04-24T00:51:49;9.30;99.90
20319;DHT22;10317;47.254;11.314;2023-04-24T00:54:17;9.30;99.90
20319;DHT22;10317;47.254;11.314;2023-04-24T00:56:44;9.30;99.90
20319;DHT22;10317;47.254;11.314;2023-04-24T00:59:13;9.30;99.90
20319;DHT22;10317;47.254;11.314;2023-04-24T01:01:40;9.30;99.90
20319;DHT22;10317;47.254;11.314;2023-04-24T01:04:12;9.30;99.90
20319;DHT22;10317;47.254;11.314;2023-04-24T01:06:39;9.30;99.90
20319;DHT22;10317;47.254;11.314;2023-04-24T01:09:06;9.30;99.90
20319;DHT22;10317;47.254;11.314;2023-04-24T01:11:33;9.30;99.90
20319;DHT22;10317;47.254;11.314;2023-04-24T01:13:59;9.20;99.90
20319;DHT22;10317;47.254;11.314;2023-04-24T01:16:25;9.30;99.90
20319;DHT22;10317;47.254;11.314;2023-04-24T01:18:51;9.20;99.90
20319;DHT22;10317;47.254;11.314;2023-04-24T01:21:18;9.30;99.90
20319;DHT22;10317;47.254;11.314;2023-04-24T01:23:45;9.30;99.90
20319;DHT22;10317;47.254;11.314;2023-04-24T01:26:15;9.20;99.90
20319;DHT22;10317;47.254;11.314;2023-04-24T01:28:41;9.20;99.90
20319;DHT22;10317;47.254;11.314;2023-04-24T01:31:07;9.20;99.90
20319;DHT22;10317;47.254;11.314;2023-04-24T01:33:33;9.20;99.90
20319;DHT22;10317;47.254;11.314;2023-04-24T01:35:59;9.10;99.90
20319;DHT22;10317;47.254;11.314;2023-04-24T01:38:25;9.10;99.90
20319;DHT22;10317;47.254;11.314;2023-04-24T01:40:51;9.20;99.90
20319;DHT22;10317;47.254;11.314;2023-04-24T01:43:17;9.10;99.90
20319;DHT22;10317;47.254;11.314;2023-04-24T01:45:43;9.20;99.90
20319;DHT22;10317;47.254;11.314;2023-04-24T01:48:09;9.20;99.90
20319;DHT22;10317;47.254;11.314;2023-04-24T01:50:35;9.10;99.90
20319;DHT22;10317;47.254;11.314;2023-04-24T01:53:00;9.10;99.90
20319;DHT22;10317;47.254;11.314;2023-04-24T01:55:26;9.10;99.90
20319;DHT22;10317;47.254;11.314;2023-04-24T01:57:53;9.20;99.90
20319;DHT22;10317;47.254;11.314;2023-04-24T02:00:20;9.10;99.90
20319;DHT22;10317;47.254;11.314;2023-04-24T02:02:46;9.10;99.90
20319;DHT22;10317;47.254;11.314;2023-04-24T02:05:12;9.10;99.90
20319;DHT22;10317;47.254;11.314;2023-04-24T02:07:37;9.20;99.90
20319;DHT22;10317;47.254;11.314;2023-04-24T02:10:03;9.10;99.90
20319;DHT22;10317;47.254;11.314;2023-04-24T02:12:30;9.10;99.90
20319;DHT22;10317;47.254;11.314;2023-04-24T02:14:55;9.10;99.90
20319;DHT22;10317;47.254;11.314;2023-04-24T02:17:21;9.00;99.90
20319;DHT22;10317;47.254;11.314;2023-04-24T02:19:47;9.00;99.90
20319;DHT22;10317;47.254;11.314;2023-04-24T02:22:13;9.00;99.90
20319;DHT22;10317;47.254;11.314;2023-04-24T02:24:39;9.00;99.90
20319;DHT22;10317;47.254;11.314;2023-04-24T02:27:05;9.00;99.90
20319;DHT22;10317;47.254;11.314;2023-04-24T02:29:31;8.90;99.90
20319;DHT22;10317;47.254;11.314;2023-04-24T02:31:57;8.80;99.90
20319;DHT22;10317;47.254;11.314;2023-04-24T02:34:22;8.80;99.90
20319;DHT22;10317;47.254;11.314;2023-04-24T02:36:48;8.70;99.90
20319;DHT22;10317;47.254;11.314;2023-04-24T02:39:14;8.70;99.90
20319;DHT22;10317;47.254;11.314;2023-04-24T02:41:44;8.70;99.90
20319;DHT22;10317;47.254;11.314;2023-04-24T02:44:10;8.70;99.90
20319;DHT22;10317;47.254;11.314;2023-04-24T02:46:36;8.70;99.90
20319;DHT22;10317;47.254;11.314;2023-04-24T02:49:02;8.80;99.90
20319;DHT22;10317;47.254;11.314;2023-04-24T02:51:28;8.80;99.90
20319;DHT22;10317;47.254;11.314;2023-04-24T02:53:53;8.80;99.90
20319;DHT22;10317;47.254;11.314;2023-04-24T02:56:19;8.70;99.90
20319;DHT22;10317;47.254;11.314;2023-04-24T02:58:45;8.70;99.90
20319;DHT22;10317;47.254;11.314;2023-04-24T03:01:10;8.70;99.90
20319;DHT22;10317;47.254;11.314;2023-04-24T03:03:37;8.60;99.90
20319;DHT22;10317;47.254;11.314;2023-04-24T03:06:03;8.60;99.90
20319;DHT22;10317;47.254;11.314;2023-04-24T03:08:33;8.60;99.90
20319;DHT22;10317;47.254;11.314;2023-04-24T03:10:59;8.60;99.90
20319;DHT22;10317;47.254;11.314;2023-04-24T03:13:25;8.50;99.90
20319;DHT22;10317;47.254;11.314;2023-04-24T03:15:51;8.50;99.90
20319;DHT22;10317;47.254;11.314;2023-04-24T03:18:17;8.40;99.90
20319;DHT22;10317;47.254;11.314;2023-04-24T03:20:45;8.40;99.90
20319;DHT22;10317;47.254;11.314;2023-04-24T03:23:11;8.40;99.90
20319;DHT22;10317;47.254;11.314;2023-04-24T03:25:37;8.40;99.90
20319;DHT22;10317;47.254;11.314;2023-04-24T03:28:03;8.40;99.90
20319;DHT22;10317;47.254;11.314;2023-04-24T03:30:28;8.40;99.90
20319;DHT22;10317;47.254;11.314;2023-04-24T03:32:54;8.50;99.90
20319;DHT22;10317;47.254;11.314;2023-04-24T03:35:20;8.50;99.90
20319;DHT22;10317;47.254;11.314;2023-04-24T03:37:47;8.50;99.90
20319;DHT22;10317;47.254;11.314;2023-04-24T03:40:14;8.50;99.90
20319;DHT22;10317;47.254;11.314;2023-04-24T03:42:39;8.50;99.90
20319;DHT22;10317;47.254;11.314;2023-04-24T03:45:06;8.50;99.90
20319;DHT22;10317;47.254;11.314;2023-04-24T03:47:31;8.40;99.90
20319;DHT22;10317;47.254;11.314;2023-04-24T03:49:57;8.50;99.90
20319;DHT22;10317;47.254;11.314;2023-04-24T03:52:23;8.40;99.90
20319;DHT22;10317;47.254;11.314;2023-04-24T03:54:49;8.40;99.90
20319;DHT22;10317;47.254;11.314;2023-04-24T03:57:14;8.40;99.90
20319;DHT22;10317;47.254;11.314;2023-04-24T03:59:40;8.40;99.90
20319;DHT22;10317;47.254;11.314;2023-04-24T04:02:06;8.50;99.90
20319;DHT22;10317;47.254;11.314;2023-04-24T04:04:32;8.50;99.90
20319;DHT22;10317;47.254;11.314;2023-04-24T04:06:57;8.50;99.90
20319;DHT22;10317;47.254;11.314;2023-04-24T04:09:26;8.60;99.90
20319;DHT22;10317;47.254;11.314;2023-04-24T04:11:52;8.50;99.90
20319;DHT22;10317;47.254;11.314;2023-04-24T04:14:18;8.60;99.90
20319;DHT22;10317;47.254;11.314;2023-04-24T04:16:43;8.60;99.90
20319;DHT22;10317;47.254;11.314;2023-04-24T04:19:10;8.60;99.90
20319;DHT22;10317;47.254;11.314;2023-04-24T04:21:35;8.60;99.90
20319;DHT22;10317;47.254;11.314;2023-04-24T04:24:01;8.60;99.90
20319;DHT22;10317;47.254;11.314;2023-04-24T04:26:26;8.60;99.90
20319;DHT22;10317;47.254;11.314;2023-04-24T04:28:52;8.60;99.90
20319;DHT22;10317;47.254;11.314;2023-04-24T04:31:19;8.60;99.90
20319;DHT22;10317;47.254;11.314;2023-04-24T04:33:46;8.60;99.90
20319;DHT22;10317;47.254;11.314;2023-04-24T04:36:11;8.60;99.90
20319;DHT22;10317;47.254;11.314;2023-04-24T04:38:37;8.60;99.90
20319;DHT22;10317;47.254;11.314;2023-04-24T04:41:03;8.60;99.90
20319;DHT22;10317;47.254;11.314;2023-04-24T04:43:29;8.70;99.90
20319;DHT22;10317;47.254;11.314;2023-04-24T04:45:57;8.70;99.90
20319;DHT22;10317;47.254;11.314;2023-04-24T04:48:22;8.70;99.90
20319;DHT22;10317;47.254;11.314;2023-04-24T04:50:48;8.70;99.90
20319;DHT22;10317;47.254;11.314;2023-04-24T04:53:14;8.80;99.90
20319;DHT22;10317;47.254;11.314;2023-04-24T04:55:39;8.70;99.90
20319;DHT22;10317;47.254;11.314;2023-04-24T04:58:05;8.80;99.90
20319;DHT22;10317;47.254;11.314;2023-04-24T05:00:31;8.80;99.90
20319;DHT22;10317;47.254;11.314;2023-04-24T05:03:01;8.80;99.90
20319;DHT22;10317;47.254;11.314;2023-04-24T05:05:27;8.80;99.90
20319;DHT22;10317;47.254;11.314;2023-04-24T05:07:52;8.90;99.90
20319;DHT22;10317;47.254;11.314;2023-04-24T05:10:18;8.90;99.90
20319;DHT22;10317;47.254;11.314;2023-04-24T05:12:44;8.90;99.90
20319;DHT22;10317;47.254;11.314;2023-04-24T05:15:10;8.80;99.90
20319;DHT22;10317;47.254;11.314;2023-04-24T05:17:36;8.80;99.90
20319;DHT22;10317;47.254;11.314;2023-04-24T05:20:03;8.80;99.90
20319;DHT22;10317;47.254;11.314;2023-04-24T05:22:31;8.70;99.90
20319;DHT22;10317;47.254;11.314;2023-04-24T05:24:56;8.80;99.90
20319;DHT22;10317;47.254;11.314;2023-04-24T05:27:22;8.80;99.90
20319;DHT22;10317;47.254;11.314;2023-04-24T05:29:48;8.80;99.90
20319;DHT22;10317;47.254;11.314;2023-04-24T05:32:14;8.90;99.90
20319;DHT22;10317;47.254;11.314;2023-04-24T05:34:39;8.80;99.90
20319;DHT22;10317;47.254;11.314;2023-04-24T05:37:05;8.80;99.90
20319;DHT22;10317;47.254;11.314;2023-04-24T05:39:34;8.80;99.90
20319;DHT22;10317;47.254;11.314;2023-04-24T05:42:00;8.90;99.90
20319;DHT22;10317;47.254;11.314;2023-04-24T05:44:26;8.80;99.90
20319;DHT22;10317;47.254;11.314;2023-04-24T05:46:52;8.80;99.90
20319;DHT22;10317;47.254;11.314;2023-04-24T05:49:18;8.80;99.90
20319;DHT22;10317;47.254;11.314;2023-04-24T05:51:43;8.80;99.90
20319;DHT22;10317;47.254;11.314;2023-04-24T05:54:09;8.80;99.90
20319;DHT22;10317;47.254;11.314;2023-04-24T05:56:37;8.80;99.90
20319;DHT22;10317;47.254;11.314;2023-04-24T05:59:03;8.70;99.90
20319;DHT22;10317;47.254;11.314;2023-04-24T06:01:29;8.80;99.90
20319;DHT22;10317;47.254;11.314;2023-04-24T06:03:55;8.80;99.90
20319;DHT22;10317;47.254;11.314;2023-04-24T06:06:20;8.80;99.90
20319;DHT22;10317;47.254;11.314;2023-04-24T06:08:46;8.80;99.90
20319;DHT22;10317;47.254;11.314;2023-04-24T06:11:12;8.90;99.90
20319;DHT22;10317;47.254;11.314;2023-04-24T06:13:37;8.90;99.90
20319;DHT22;10317;47.254;11.314;2023-04-24T06:16:04;9.00;99.90
20319;DHT22;10317;47.254;11.314;2023-04-24T06:18:29;9.00;99.90
20319;DHT22;10317;47.254;11.314;2023-04-24T06:20:55;9.00;99.90
20319;DHT22;10317;47.254;11.314;2023-04-24T06:23:21;9.10;99.90
20319;DHT22;10317;47.254;11.314;2023-04-24T06:25:47;9.20;99.90
20319;DHT22;10317;47.254;11.314;2023-04-24T06:28:13;9.10;99.90
20319;DHT22;10317;47.254;11.314;2023-04-24T06:30:38;9.10;99.90
20319;DHT22;10317;47.254;11.314;2023-04-24T06:33:04;9.10;99.90
20319;DHT22;10317;47.254;11.314;2023-04-24T06:35:30;9.00;99.90
20319;DHT22;10317;47.254;11.314;2023-04-24T06:37:56;9.10;99.90
20319;DHT22;10317;47.254;11.314;2023-04-24T06:40:22;9.10;99.90
20319;DHT22;10317;47.254;11.314;2023-04-24T06:42:47;9.10;99.90
20319;DHT22;10317;47.254;11.314;2023-04-24T06:45:13;9.10;99.90
20319;DHT22;10317;47.254;11.314;2023-04-24T06:47:39;9.10;99.90
20319;DHT22;10317;47.254;11.314;2023-04-24T06:50:05;9.20;99.90
20319;DHT22;10317;47.254;11.314;2023-04-24T06:52:31;9.20;99.90
20319;DHT22;10317;47.254;11.314;2023-04-24T06:55:04;9.20;99.90
20319;DHT22;10317;47.254;11.314;2023-04-24T06:57:30;9.30;99.90
20319;DHT22;10317;47.254;11.314;2023-04-24T06:59:56;9.30;99.90
20319;DHT22;10317;47.254;11.314;2023-04-24T07:02:22;9.40;99.90
20319;DHT22;10317;47.254;11.314;2023-04-24T07:04:48;9.50;99.90
20319;DHT22;10317;47.254;11.314;2023-04-24T07:07:14;9.50;99.90
20319;DHT22;10317;47.254;11.314;2023-04-24T07:09:40;9.50;99.90
20319;DHT22;10317;47.254;11.314;2023-04-24T07:12:09;9.50;99.90
20319;DHT22;10317;47.254;11.314;2023-04-24T07:14:38;9.60;99.90
20319;DHT22;10317;47.254;11.314;2023-04-24T07:17:04;9.60;99.90
20319;DHT22;10317;47.254;11.314;2023-04-24T07:19:33;9.70;99.90
20319;DHT22;10317;47.254;11.314;2023-04-24T07:21:58;9.70;99.90
20319;DHT22;10317;47.254;11.314;2023-04-24T07:24:25;9.70;99.90
20319;DHT22;10317;47.254;11.314;2023-04-24T07:26:52;9.80;99.90
20319;DHT22;10317;47.254;11.314;2023-04-24T07:29:18;9.90;99.90
20319;DHT22;10317;47.254;11.314;2023-04-24T07:31:44;9.90;99.90
20319;DHT22;10317;47.254;11.314;2023-04-24T07:34:09;10.10;99.90
20319;DHT22;10317;47.254;11.314;2023-04-24T07:36:36;10.10;99.90
20319;DHT22;10317;47.254;11.314;2023-04-24T07:39:07;10.20;99.90
20319;DHT22;10317;47.254;11.314;2023-04-24T07:41:33;9.90;99.90
20319;DHT22;10317;47.254;11.314;2023-04-24T07:43:59;9.90;99.90
20319;DHT22;10317;47.254;11.314;2023-04-24T07:46:25;10.00;99.90
20319;DHT22;10317;47.254;11.314;2023-04-24T07:48:51;9.90;99.90
20319;DHT22;10317;47.254;11.314;2023-04-24T07:51:16;10.00;99.90
20319;DHT22;10317;47.254;11.314;2023-04-24T07:53:43;9.80;99.90
20319;DHT22;10317;47.254;11.314;2023-04-24T07:56:09;9.80;99.90
20319;DHT22;10317;47.254;11.314;2023-04-24T07:58:35;9.90;99.90
20319;DHT22;10317;47.254;11.314;2023-04-24T08:01:00;10.10;99.90
20319;DHT22;10317;47.254;11.314;2023-04-24T08:03:26;10.20;99.90
20319;DHT22;10317;47.254;11.314;2023-04-24T08:05:52;10.40;99.90
20319;DHT22;10317;47.254;11.314;2023-04-24T08:08:22;10.40;99.90
20319;DHT22;10317;47.254;11.314;2023-04-24T08:10:48;10.50;99.90
20319;DHT22;10317;47.254;11.314;2023-04-24T08:13:14;10.40;99.90
20319;DHT22;10317;47.254;11.314;2023-04-24T08:15:40;10.20;99.90
20319;DHT22;10317;47.254;11.314;2023-04-24T08:18:06;10.40;99.90
20319;DHT22;10317;47.254;11.314;2023-04-24T08:20:32;10.60;99.90
20319;DHT22;10317;47.254;11.314;2023-04-24T08:22:57;10.60;99.90
20319;DHT22;10317;47.254;11.314;2023-04-24T08:25:23;10.70;99.90
20319;DHT22;10317;47.254;11.314;2023-04-24T08:27:50;10.70;99.90
20319;DHT22;10317;47.254;11.314;2023-04-24T08:30:16;10.90;99.90
20319;DHT22;10317;47.254;11.314;2023-04-24T08:32:42;11.10;99.90
20319;DHT22;10317;47.254;11.314;2023-04-24T08:35:08;11.20;99.90
20319;DHT22;10317;47.254;11.314;2023-04-24T08:37:34;11.10;99.90
20319;DHT22;10317;47.254;11.314;2023-04-24T08:40:01;11.00;99.90
20319;DHT22;10317;47.254;11.314;2023-04-24T08:42:32;11.10;99.90
20319;DHT22;10317;47.254;11.314;2023-04-24T08:44:59;11.00;99.90
20319;DHT22;10317;47.254;11.314;2023-04-24T08:47:25;11.00;99.90
20319;DHT22;10317;47.254;11.314;2023-04-24T08:49:54;11.10;99.90
20319;DHT22;10317;47.254;11.314;2023-04-24T08:52:20;11.30;99.90
20319;DHT22;10317;47.254;11.314;2023-04-24T08:54:47;11.30;99.90
20319;DHT22;10317;47.254;11.314;2023-04-24T08:57:14;11.20;99.90
20319;DHT22;10317;47.254;11.314;2023-04-24T08:59:40;11.40;99.90
20319;DHT22;10317;47.254;11.314;2023-04-24T09:02:10;11.50;99.90
20319;DHT22;10317;47.254;11.314;2023-04-24T09:04:36;11.60;99.90
20319;DHT22;10317;47.254;11.314;2023-04-24T09:07:03;11.80;99.90
20319;DHT22;10317;47.254;11.314;2023-04-24T09:09:32;11.90;99.90
20319;DHT22;10317;47.254;11.314;2023-04-24T09:11:58;12.00;99.90
20319;DHT22;10317;47.254;11.314;2023-04-24T09:14:24;12.20;99.90
20319;DHT22;10317;47.254;11.314;2023-04-24T09:16:50;12.10;99.90
20319;DHT22;10317;47.254;11.314;2023-04-24T09:19:16;12.20;99.90
20319;DHT22;10317;47.254;11.314;2023-04-24T09:21:45;12.40;99.90
20319;DHT22;10317;47.254;11.314;2023-04-24T09:24:20;12.50;99.90
20319;DHT22;10317;47.254;11.314;2023-04-24T09:26:48;12.80;99.90
20319;DHT22;10317;47.254;11.314;2023-04-24T09:29:18;12.90;99.90
20319;DHT22;10317;47.254;11.314;2023-04-24T09:31:45;12.90;99.90
20319;DHT22;10317;47.254;11.314;2023-04-24T09:34:11;12.80;99.90
20319;DHT22;10317;47.254;11.314;2023-04-24T09:36:42;12.90;99.90
20319;DHT22;10317;47.254;11.314;2023-04-24T09:39:12;13.00;99.90
20319;DHT22;10317;47.254;11.314;2023-04-24T09:44:18;13.00;99.90
20319;DHT22;10317;47.254;11.314;2023-04-24T09:46:51;13.20;99.90
20319;DHT22;10317;47.254;11.314;2023-04-24T09:49:25;12.70;99.90
20319;DHT22;10317;47.254;11.314;2023-04-24T09:51:52;12.60;99.90
20319;DHT22;10317;47.254;11.314;2023-04-24T09:54:20;13.00;99.90
20319;DHT22;10317;47.254;11.314;2023-04-24T09:56:50;13.30;99.90
20319;DHT22;10317;47.254;11.314;2023-04-24T09:59:17;13.20;99.90
20319;DHT22;10317;47.254;11.314;2023-04-24T10:01:44;13.30;99.90
20319;DHT22;10317;47.254;11.314;2023-04-24T10:04:24;13.40;99.90
20319;DHT22;10317;47.254;11.314;2023-04-24T10:06:52;13.40;99.90
20319;DHT22;10317;47.254;11.314;2023-04-24T10:09:19;13.50;99.90
20319;DHT22;10317;47.254;11.314;2023-04-24T10:11:47;13.50;99.90
20319;DHT22;10317;47.254;11.314;2023-04-24T10:14:21;13.40;99.90
20319;DHT22;10317;47.254;11.314;2023-04-24T10:16:47;13.50;99.90
20319;DHT22;10317;47.254;11.314;2023-04-24T10:19:15;13.70;99.90
20319;DHT22;10317;47.254;11.314;2023-04-24T10:21:43;13.60;99.90
20319;DHT22;10317;47.254;11.314;2023-04-24T10:24:19;13.70;99.90
20319;DHT22;10317;47.254;11.314;2023-04-24T10:26:47;14.00;99.90
20319;DHT22;10317;47.254;11.314;2023-04-24T10:29:14;14.20;99.90
20319;DHT22;10317;47.254;11.314;2023-04-24T10:31:41;14.10;99.90
20319;DHT22;10317;47.254;11.314;2023-04-24T10:34:09;14.10;99.90
20319;DHT22;10317;47.254;11.314;2023-04-24T10:36:36;14.10;99.90
20319;DHT22;10317;47.254;11.314;2023-04-24T10:39:07;14.30;99.90
20319;DHT22;10317;47.254;11.314;2023-04-24T10:41:37;14.40;99.80
20319;DHT22;10317;47.254;11.314;2023-04-24T10:44:07;14.60;99.60
20319;DHT22;10317;47.254;11.314;2023-04-24T10:46:33;14.50;99.20
20319;DHT22;10317;47.254;11.314;2023-04-24T10:48:59;14.80;99.20
20319;DHT22;10317;47.254;11.314;2023-04-24T10:54:29;15.10;97.90
20319;DHT22;10317;47.254;11.314;2023-04-24T10:57:28;15.20;97.80
20319;DHT22;10317;47.254;11.314;2023-04-24T11:00:18;15.30;96.20
20319;DHT22;10317;47.254;11.314;2023-04-24T11:02:46;14.70;97.30
20319;DHT22;10317;47.254;11.314;2023-04-24T11:05:18;15.00;97.20
20319;DHT22;10317;47.254;11.314;2023-04-24T11:08:10;15.50;97.80
20319;DHT22;10317;47.254;11.314;2023-04-24T11:11:02;15.50;95.80
20319;DHT22;10317;47.254;11.314;2023-04-24T11:16:23;15.60;97.30
20319;DHT22;10317;47.254;11.314;2023-04-24T11:21:40;15.60;95.80
20319;DHT22;10317;47.254;11.314;2023-04-24T11:29:46;14.50;97.70
20319;DHT22;10317;47.254;11.314;2023-04-24T11:37:43;14.60;99.90
20319;DHT22;10317;47.254;11.314;2023-04-24T11:40:12;14.70;99.90
20319;DHT22;10317;47.254;11.314;2023-04-24T11:42:43;14.80;99.90
20319;DHT22;10317;47.254;11.314;2023-04-24T11:47:40;15.30;99.90
20319;DHT22;10317;47.254;11.314;2023-04-24T11:50:11;15.10;97.60
20319;DHT22;10317;47.254;11.314;2023-04-24T11:52:39;15.30;99.90
20319;DHT22;10317;47.254;11.314;2023-04-24T11:55:07;15.40;98.00
20319;DHT22;10317;47.254;11.314;2023-04-24T11:57:33;14.80;97.30
20319;DHT22;10317;47.254;11.314;2023-04-24T12:00:02;15.00;99.90
20319;DHT22;10317;47.254;11.314;2023-04-24T12:02:29;15.50;96.50
20319;DHT22;10317;47.254;11.314;2023-04-24T12:04:55;15.40;96.90
20319;DHT22;10317;47.254;11.314;2023-04-24T12:07:22;15.40;96.80
20319;DHT22;10317;47.254;11.314;2023-04-24T12:09:57;15.00;95.70
20319;DHT22;10317;47.254;11.314;2023-04-24T12:12:26;14.50;94.00
20319;DHT22;10317;47.254;11.314;2023-04-24T12:14:58;14.80;96.50
20319;DHT22;10317;47.254;11.314;2023-04-24T12:17:29;15.20;95.00
20319;DHT22;10317;47.254;11.314;2023-04-24T12:20:00;14.60;95.40
20319;DHT22;10317;47.254;11.314;2023-04-24T12:22:26;14.80;96.00
20319;DHT22;10317;47.254;11.314;2023-04-24T12:24:56;14.70;94.90
20319;DHT22;10317;47.254;11.314;2023-04-24T12:27:22;14.10;94.60
20319;DHT22;10317;47.254;11.314;2023-04-24T12:29:52;14.20;96.40
20319;DHT22;10317;47.254;11.314;2023-04-24T12:32:18;14.60;96.30
20319;DHT22;10317;47.254;11.314;2023-04-24T12:34:44;14.80;94.60
20319;DHT22;10317;47.254;11.314;2023-04-24T12:37:13;15.00;95.30
20319;DHT22;10317;47.254;11.314;2023-04-24T12:39:38;14.90;96.50
20319;DHT22;10317;47.254;11.314;2023-04-24T12:42:04;14.50;96.50
20319;DHT22;10317;47.254;11.314;2023-04-24T12:44:31;14.70;97.20
20319;DHT22;10317;47.254;11.314;2023-04-24T12:46:57;14.80;96.90
20319;DHT22;10317;47.254;11.314;2023-04-24T12:49:23;15.30;97.10
20319;DHT22;10317;47.254;11.314;2023-04-24T12:51:49;15.70;95.50
20319;DHT22;10317;47.254;11.314;2023-04-24T12:54:14;15.80;92.50
20319;DHT22;10317;47.254;11.314;2023-04-24T12:56:40;16.00;92.00
20319;DHT22;10317;47.254;11.314;2023-04-24T12:59:06;16.60;92.80
20319;DHT22;10317;47.254;11.314;2023-04-24T13:01:32;16.60;90.60
20319;DHT22;10317;47.254;11.314;2023-04-24T13:03:57;16.60;86.00
20319;DHT22;10317;47.254;11.314;2023-04-24T13:06:23;16.70;90.30
20319;DHT22;10317;47.254;11.314;2023-04-24T13:08:49;16.80;84.20
20319;DHT22;10317;47.254;11.314;2023-04-24T13:11:14;17.20;74.10
20319;DHT22;10317;47.254;11.314;2023-04-24T13:13:40;17.40;70.10
20319;DHT22;10317;47.254;11.314;2023-04-24T13:16:06;17.70;66.80
20319;DHT22;10317;47.254;11.314;2023-04-24T13:18:32;17.60;66.60
20319;DHT22;10317;47.254;11.314;2023-04-24T13:20:57;17.50;65.80
20319;DHT22;10317;47.254;11.314;2023-04-24T13:23:23;17.60;67.70
20319;DHT22;10317;47.254;11.314;2023-04-24T13:25:48;17.80;63.50
20319;DHT22;10317;47.254;11.314;2023-04-24T13:28:14;18.00;62.60
20319;DHT22;10317;47.254;11.314;2023-04-24T13:30:40;18.00;59.90
20319;DHT22;10317;47.254;11.314;2023-04-24T13:33:06;18.20;57.70
20319;DHT22;10317;47.254;11.314;2023-04-24T13:35:31;18.40;59.00
20319;DHT22;10317;47.254;11.314;2023-04-24T13:37:58;18.50;57.80
20319;DHT22;10317;47.254;11.314;2023-04-24T13:40:23;18.50;54.30
20319;DHT22;10317;47.254;11.314;2023-04-24T13:42:49;18.40;55.80
20319;DHT22;10317;47.254;11.314;2023-04-24T13:45:15;18.30;57.70
20319;DHT22;10317;47.254;11.314;2023-04-24T13:47:41;18.20;56.40
20319;DHT22;10317;47.254;11.314;2023-04-24T13:50:09;18.30;55.70
20319;DHT22;10317;47.254;11.314;2023-04-24T13:52:35;18.30;57.10
20319;DHT22;10317;47.254;11.314;2023-04-24T13:55:01;18.00;54.40
20319;DHT22;10317;47.254;11.314;2023-04-24T13:57:26;17.70;54.60
20319;DHT22;10317;47.254;11.314;2023-04-24T13:59:53;17.30;54.10
20319;DHT22;10317;47.254;11.314;2023-04-24T14:02:21;17.40;56.50
20319;DHT22;10317;47.254;11.314;2023-04-24T14:04:47;17.30;56.40
20319;DHT22;10317;47.254;11.314;2023-04-24T14:07:13;17.00;54.10
20319;DHT22;10317;47.254;11.314;2023-04-24T14:09:39;16.90;55.40
20319;DHT22;10317;47.254;11.314;2023-04-24T14:12:05;16.70;51.20
20319;DHT22;10317;47.254;11.314;2023-04-24T14:14:31;16.80;52.30
20319;DHT22;10317;47.254;11.314;2023-04-24T14:16:57;16.60;52.80
20319;DHT22;10317;47.254;11.314;2023-04-24T14:19:22;16.60;55.00
20319;DHT22;10317;47.254;11.314;2023-04-24T14:21:49;16.60;56.40
20319;DHT22;10317;47.254;11.314;2023-04-24T14:24:15;16.90;55.00
20319;DHT22;10317;47.254;11.314;2023-04-24T14:26:41;16.90;54.00
20319;DHT22;10317;47.254;11.314;2023-04-24T14:29:06;16.90;53.00
20319;DHT22;10317;47.254;11.314;2023-04-24T14:31:32;16.90;52.80
20319;DHT22;10317;47.254;11.314;2023-04-24T14:33:58;16.90;52.20
20319;DHT22;10317;47.254;11.314;2023-04-24T14:36:24;17.00;52.00
20319;DHT22;10317;47.254;11.314;2023-04-24T14:38:49;16.80;54.10
20319;DHT22;10317;47.254;11.314;2023-04-24T14:41:15;16.70;54.30
20319;DHT22;10317;47.254;11.314;2023-04-24T14:43:41;16.50;54.90
20319;DHT22;10317;47.254;11.314;2023-04-24T14:46:07;16.60;56.40
20319;DHT22;10317;47.254;11.314;2023-04-24T14:48:32;16.50;54.50
20319;DHT22;10317;47.254;11.314;2023-04-24T14:50:58;16.50;54.80
20319;DHT22;10317;47.254;11.314;2023-04-24T14:53:24;16.60;56.90
20319;DHT22;10317;47.254;11.314;2023-04-24T14:55:49;16.80;56.70
20319;DHT22;10317;47.254;11.314;2023-04-24T14:58:15;16.80;53.70
20319;DHT22;10317;47.254;11.314;2023-04-24T15:00:41;17.00;53.50
20319;DHT22;10317;47.254;11.314;2023-04-24T15:03:07;17.10;51.70
20319;DHT22;10317;47.254;11.314;2023-04-24T15:05:32;17.30;52.10
20319;DHT22;10317;47.254;11.314;2023-04-24T15:07:58;17.00;50.40
20319;DHT22;10317;47.254;11.314;2023-04-24T15:10:24;16.80;48.10
20319;DHT22;10317;47.254;11.314;2023-04-24T15:12:51;16.60;49.80
20319;DHT22;10317;47.254;11.314;2023-04-24T15:15:17;16.30;52.20
20319;DHT22;10317;47.254;11.314;2023-04-24T15:17:42;16.20;51.80
20319;DHT22;10317;47.254;11.314;2023-04-24T15:20:08;16.20;51.40
20319;DHT22;10317;47.254;11.314;2023-04-24T15:22:34;16.20;54.30
20319;DHT22;10317;47.254;11.314;2023-04-24T15:25:00;16.10;53.00
20319;DHT22;10317;47.254;11.314;2023-04-24T15:27:26;15.90;50.30
20319;DHT22;10317;47.254;11.314;2023-04-24T15:29:52;15.90;53.40
20319;DHT22;10317;47.254;11.314;2023-04-24T15:32:19;15.80;49.40
20319;DHT22;10317;47.254;11.314;2023-04-24T15:34:44;15.60;51.30
20319;DHT22;10317;47.254;11.314;2023-04-24T15:37:10;15.40;53.20
20319;DHT22;10317;47.254;11.314;2023-04-24T15:39:36;15.30;49.30
20319;DHT22;10317;47.254;11.314;2023-04-24T15:42:02;15.20;52.60
20319;DHT22;10317;47.254;11.314;2023-04-24T15:44:28;15.10;51.60